Dacula, GA (30019)

7:19 PM EDT on August 27, 2014 (GMT -0400)
Fairmont on the Park-Station Bobio | Change Station
CLOSE
Current Station
Personal Weather Station
Location: Dacula, GA
Elevation: 997 ft
Nearby Weather Stations

Elev 997 ft 34.00 °N, 83.89 °W | Updated 3 minutes ago

Clear
Clear
82.6 °F
Feels Like 84 °F
N
0.0
Wind Variable Wind from North
Gusts 0.0 mph

Today
High -- | Low -- °F
--% Chance of Precip.
Yesterday
High -- | Low -- °F
Precip. -- in
7:05 AM 8:07 PM
Waxing Crescent, 5% visible
Pressure 30.02 in
Visibility 10.0 miles
Clouds Clear
Heat Index 84 °F
Dew Point 64 °F
Humidity 54%
Rainfall 0.00 in
Snow Depth Not available.
UV 0.0 out of 12
Pollen 8.30 out of 12
Ozone Moderate
PM2.5 Moderate
Flu Activity Not available.
METAR KGVL 272253Z AUTO 09004KT 10SM CLR 29/15 A3006 RMK AO2 SLP164 T02940150

More Conditions Fewer Conditions

Pressure 30.02 in
Visibility 10.0 miles
Clouds Clear
Heat Index 84 °F
Dew Point 64 °F
Humidity 54%
Rainfall 0.00 in
Snow Depth Not available.
UV 0.0 out of 12
Pollen 8.30 out of 12
Ozone Moderate
PM2.5 Moderate
Flu Activity Not available.
METAR KGVL 272253Z AUTO 09004KT 10SM CLR 29/15 A3006 RMK AO2 SLP164 T02940150

More Conditions Fewer Conditions

10-Day Weather Forecast

Almanac

Astronomy

Aug. 27, 2014 Rise Set
Actual Time 7:05 AM EDT 8:07 PM EDT
Civil Twilight 6:39 AM EDT 8:33 PM EDT
Nautical Twilight 6:09 AM EDT 9:03 PM EDT
Astronomical Twilight 5:37 AM EDT 9:35 PM EDT
Moon 8:53 AM EDT 9:07 PM EDT
Length of Visible Light 13h 53m
Length of Day
13h 02m
Tomorrow will be 1m 59s shorter.
Waxing Crescent, 5% of the Moon is Illuminated
Today
Waxing Crescent
Sep 2
First Quarter
Sep 8
Full
Sep 15
Last Quarter
Sep 24
New

Today's Extremes

State Highs State Lows

Community

WunderPhotos

Upload Photos

1,747,815 photos uploaded!

Nearby

Air Quality

  Air Quality AQ Index Pollutant
Yesterday Good
OZONE
Yesterday Good
PM10
Current Moderate
OZONE
Current Moderate
PM2.5
Wednesday Moderate
OZONE
Wednesday Moderate
PM2.5
Thursday Unhealthy for Sensitive Groups
OZONE
Thursday Moderate
PM2.5

Snow Depth

Station Depth Elevation
No new snow has been reported.

Earthquake Activity

City Distance Mag. Time & Date
No recent earthquake activity has been reported nearby.
Minimum magnitude displayed is 2.5.

Coastal Water Temperatures

Place Temperature
No Stations Reporting

Nearby Weather Stations